Weather

Webcam

Metar / TAF

Zurich

  • LSZH 220420Z 12001KT CAVOK M02/M03 Q1030 NOSIG

  • TAF LSZH 220225Z 2203/2309 VRB03KT CAVOK TX18/2215Z TNM02/2205Z TNM01/2305Z PROB30 2204/2207 4000 MIFG

Dübendorf

  • LSMD 220420Z AUTO 00000KT 9999NDV NCD M02/M02 Q1030 RMK

  • TAF LSMD 210925Z 2110/2216 05005KT CAVOK BECMG 2122/2201 7000 NSC PROB40 2200/2209 4000 BR SCT005 PROB30 2204/2207 2500 BCFG BKN002 BECMG 2208/2211 CAVOK

St. Gallen

  • LSZR 220420Z AUTO VRB01KT CAVOK M01/M02 Q1030

  • TAF AMD LSZR 222054Z 2220/2224 CNL

Bern

  • LSZB 220420Z AUTO VRB01KT 6000 NCD M03/M03 Q1030

  • TAF AMD TAF AMD LSZB 222054Z 2220/2224 CNL

Locarno

  • LSZL 220420Z AUTO 08002KT 9999NDV NCD 01/M02 Q1032 RMK

  • TAF AMD TAF AMD LSZL 150713Z 1509/1521 VRB03KT 9999 SCT050

Samedan

  • LSZS 220420Z AUTO 20002KT CAVOK M11/M14 Q1031

  • TAF AMD LSZS 222054Z 2220/2224 CNL

Geneve

  • LSGG 220420Z AUTO 29002KT CAVOK M01/M03 Q1030 NOSIG

  • TAF TAF LSGG 220225Z 2203/2309 VRB03KT CAVOK TX16/2215Z TNM01/2206Z TN01/2306Z

Weather-Charts



Wind at FL50: 06:00z, 09:00z, 12:00z, 15:00z and 18:00z